createdAt,value
2023-09-30T00:01:00.292Z,7.63
2023-09-30T00:03:28.253Z,7.40
2023-09-30T00:05:56.604Z,12.50
2023-09-30T00:08:26.111Z,7.30
2023-09-30T00:10:55.763Z,4.73
2023-09-30T00:13:23.874Z,10.90
2023-09-30T00:15:51.743Z,8.17
2023-09-30T00:18:19.711Z,12.43
2023-09-30T00:20:49.127Z,8.50
2023-09-30T00:23:17.105Z,9.50
2023-09-30T00:25:46.308Z,8.10
2023-09-30T00:28:14.389Z,7.83
2023-09-30T00:30:42.432Z,9.37
2023-09-30T00:33:10.412Z,9.70
2023-09-30T00:35:38.345Z,9.60
2023-09-30T00:38:06.194Z,8.37
2023-09-30T00:40:34.036Z,7.93
2023-09-30T00:43:03.339Z,8.20
2023-09-30T00:45:32.050Z,10.40
2023-09-30T00:48:00.146Z,12.07
2023-09-30T00:50:29.699Z,8.13
2023-09-30T00:52:57.859Z,11.10
2023-09-30T00:55:25.984Z,8.93
2023-09-30T00:57:54.031Z,7.20
2023-09-30T01:00:26.464Z,6.93
2023-09-30T01:02:55.116Z,9.30
2023-09-30T01:05:23.117Z,9.07
2023-09-30T01:07:50.958Z,7.33
2023-09-30T01:10:18.833Z,9.03
2023-09-30T01:12:47.967Z,6.57
2023-09-30T01:15:15.886Z,6.40
2023-09-30T01:17:45.097Z,8.30
2023-09-30T01:20:17.613Z,9.27
2023-09-30T01:22:47.670Z,7.77
2023-09-30T01:25:15.586Z,5.97
2023-09-30T01:27:44.027Z,7.70
2023-09-30T01:30:14.727Z,8.50
2023-09-30T01:32:42.692Z,8.17
2023-09-30T01:35:10.958Z,5.70
2023-09-30T01:37:38.822Z,8.70
2023-09-30T01:40:12.613Z,10.83
2023-09-30T01:42:40.932Z,8.63
2023-09-30T01:45:09.774Z,6.97
2023-09-30T01:47:37.785Z,11.47
2023-09-30T01:50:06.906Z,7.43
2023-09-30T01:52:34.881Z,5.90
2023-09-30T01:55:02.860Z,8.80
2023-09-30T01:57:32.208Z,9.43
2023-09-30T02:00:00.227Z,7.20
2023-09-30T02:02:28.589Z,5.80
2023-09-30T02:04:56.560Z,6.73
2023-09-30T02:07:24.567Z,6.70
2023-09-30T02:09:52.509Z,7.57
2023-09-30T02:12:20.613Z,9.90
2023-09-30T02:14:50.126Z,8.00
2023-09-30T02:17:18.224Z,6.90
2023-09-30T02:19:46.751Z,7.27
2023-09-30T02:22:14.660Z,9.57
2023-09-30T02:24:42.776Z,6.47
2023-09-30T02:27:11.003Z,9.27
2023-09-30T02:29:39.070Z,7.83
2023-09-30T02:32:08.472Z,7.60
2023-09-30T02:34:36.526Z,6.90
2023-09-30T02:37:04.462Z,7.83
2023-09-30T02:39:32.444Z,8.20
2023-09-30T02:42:00.415Z,6.50
2023-09-30T02:44:28.496Z,6.87
2023-09-30T02:46:56.535Z,5.80
2023-09-30T02:49:25.777Z,7.90
2023-09-30T02:51:53.710Z,4.53
2023-09-30T02:54:21.660Z,3.97
2023-09-30T02:56:49.803Z,4.00
2023-09-30T02:59:18.280Z,3.30
2023-09-30T03:01:46.406Z,2.10
2023-09-30T03:04:14.381Z,1.47
2023-09-30T03:06:45.847Z,2.60
2023-09-30T03:09:16.275Z,2.03
2023-09-30T03:11:44.825Z,2.30
2023-09-30T03:14:13.456Z,3.40
2023-09-30T03:16:42.676Z,3.60
2023-09-30T03:19:12.580Z,3.60
2023-09-30T03:21:41.017Z,2.70
2023-09-30T03:24:11.190Z,3.20
2023-09-30T03:26:41.985Z,3.43
2023-09-30T03:29:10.373Z,3.00
2023-09-30T03:31:38.418Z,8.83
2023-09-30T03:34:06.590Z,9.27
2023-09-30T03:36:34.617Z,3.77
2023-09-30T03:39:06.843Z,5.23
2023-09-30T03:41:38.023Z,3.90
2023-09-30T03:44:06.331Z,4.90
2023-09-30T03:46:34.345Z,5.50
2023-09-30T03:49:03.759Z,10.10
2023-09-30T03:51:31.781Z,4.53
2023-09-30T03:54:00.057Z,3.57
2023-09-30T03:56:28.038Z,10.70
2023-09-30T03:58:57.817Z,4.00
2023-09-30T04:01:26.938Z,4.47
2023-09-30T04:03:56.925Z,3.83
2023-09-30T04:06:25.313Z,4.60
2023-09-30T04:08:53.465Z,2.73
2023-09-30T04:11:21.819Z,6.17
2023-09-30T04:13:51.074Z,4.03
2023-09-30T04:16:21.151Z,4.57
2023-09-30T04:18:51.403Z,5.20
2023-09-30T04:21:19.508Z,6.30
2023-09-30T04:24:43.333Z,5.40
2023-09-30T04:27:11.261Z,6.40
2023-09-30T04:29:40.253Z,3.60
2023-09-30T04:32:09.553Z,4.43
2023-09-30T04:34:37.645Z,6.23
2023-09-30T04:37:06.335Z,5.60
2023-09-30T04:39:36.737Z,3.47
2023-09-30T04:42:05.961Z,6.40
2023-09-30T04:44:33.826Z,5.00
2023-09-30T04:47:02.016Z,4.97
2023-09-30T04:49:31.828Z,3.77
2023-09-30T04:51:59.724Z,5.17
2023-09-30T04:54:27.702Z,5.90
2023-09-30T04:56:55.792Z,4.50
2023-09-30T04:59:26.067Z,4.07
2023-09-30T05:01:54.477Z,4.17
2023-09-30T05:04:22.876Z,5.07
2023-09-30T05:06:52.239Z,4.60
2023-09-30T05:09:20.309Z,4.90
2023-09-30T05:11:48.209Z,4.83
2023-09-30T05:14:17.544Z,7.07
2023-09-30T05:16:45.658Z,6.37
2023-09-30T05:19:13.685Z,5.77
2023-09-30T05:21:42.053Z,5.30
2023-09-30T05:24:12.101Z,3.13
2023-09-30T05:26:40.120Z,6.23
2023-09-30T05:29:08.547Z,5.07
2023-09-30T05:31:36.547Z,5.60
2023-09-30T05:34:05.353Z,5.23
2023-09-30T05:36:33.315Z,5.20
2023-09-30T05:39:01.228Z,4.63
2023-09-30T05:41:30.857Z,7.43
2023-09-30T05:43:59.878Z,4.90
2023-09-30T05:46:28.261Z,5.70
2023-09-30T05:48:56.373Z,7.57
2023-09-30T05:51:24.510Z,4.63
2023-09-30T05:53:53.447Z,3.63
2023-09-30T05:56:21.659Z,6.00
2023-09-30T05:58:50.859Z,8.77
2023-09-30T06:01:20.157Z,3.43
2023-09-30T06:03:48.849Z,5.10
2023-09-30T06:06:17.162Z,5.10
2023-09-30T06:08:46.317Z,6.43
2023-09-30T06:11:19.257Z,11.87
2023-09-30T06:13:47.346Z,6.37
2023-09-30T06:16:17.249Z,4.60
2023-09-30T06:18:46.450Z,5.30
2023-09-30T06:21:15.816Z,6.20
2023-09-30T06:23:44.342Z,3.50
2023-09-30T06:26:12.291Z,6.80
2023-09-30T06:28:42.142Z,4.37
2023-09-30T06:31:10.941Z,9.33
2023-09-30T06:33:41.333Z,6.60
2023-09-30T06:36:14.821Z,6.57
2023-09-30T06:38:43.700Z,4.23
2023-09-30T06:41:11.707Z,6.63
2023-09-30T06:43:39.615Z,7.00
2023-09-30T06:46:11.302Z,5.53
2023-09-30T06:48:42.202Z,6.73
2023-09-30T06:51:11.458Z,6.50
2023-09-30T06:53:39.383Z,7.77
2023-09-30T06:56:07.904Z,5.37
2023-09-30T06:58:36.252Z,5.73
2023-09-30T07:01:04.380Z,6.13
2023-09-30T07:03:34.116Z,4.17
2023-09-30T07:06:04.098Z,6.90
2023-09-30T07:08:32.113Z,4.10
2023-09-30T07:10:59.997Z,4.00
2023-09-30T07:13:27.944Z,5.03
2023-09-30T07:15:55.890Z,8.13
2023-09-30T07:18:26.160Z,5.90
2023-09-30T07:20:54.377Z,3.83
2023-09-30T07:23:23.777Z,5.50
2023-09-30T07:25:51.784Z,3.40
2023-09-30T07:28:19.712Z,5.83
2023-09-30T07:30:51.445Z,5.43
2023-09-30T07:33:19.375Z,6.63
2023-09-30T07:35:47.507Z,7.27
2023-09-30T07:38:15.475Z,4.50
2023-09-30T07:40:44.740Z,4.43
2023-09-30T07:43:13.918Z,7.97
2023-09-30T07:45:41.855Z,4.27
2023-09-30T07:48:10.674Z,4.67
2023-09-30T07:50:38.861Z,6.70
2023-09-30T07:53:07.313Z,6.63
2023-09-30T07:55:35.301Z,6.33
2023-09-30T07:58:04.882Z,8.10
2023-09-30T08:00:34.990Z,4.47
2023-09-30T08:03:03.611Z,5.67
2023-09-30T08:05:31.618Z,7.63
2023-09-30T08:07:59.540Z,4.87
2023-09-30T08:10:27.467Z,4.20
2023-09-30T08:12:58.364Z,4.40
2023-09-30T08:15:28.311Z,3.67
2023-09-30T08:17:56.452Z,8.70
2023-09-30T08:20:24.473Z,3.37
2023-09-30T08:22:52.693Z,8.57
2023-09-30T08:25:20.685Z,5.17
2023-09-30T08:27:50.827Z,4.10
2023-09-30T08:30:19.760Z,5.50
2023-09-30T08:32:51.804Z,7.90
2023-09-30T08:35:20.716Z,4.73
2023-09-30T08:37:49.162Z,8.30
2023-09-30T08:40:22.580Z,8.60
2023-09-30T08:43:46.959Z,8.00
2023-09-30T08:46:17.852Z,6.07
2023-09-30T08:48:49.440Z,4.97
2023-09-30T08:51:18.199Z,9.43
2023-09-30T08:54:14.065Z,4.00
2023-09-30T08:56:44.504Z,4.17
2023-09-30T08:59:13.768Z,6.33
2023-09-30T09:01:42.203Z,4.23
2023-09-30T09:04:12.168Z,3.77
2023-09-30T09:06:40.428Z,4.13
2023-09-30T09:09:19.290Z,6.93
2023-09-30T09:11:48.017Z,5.97
2023-09-30T09:14:16.982Z,7.33
2023-09-30T09:16:55.231Z,4.20
2023-09-30T09:19:25.578Z,4.13
2023-09-30T09:21:58.751Z,7.20
2023-09-30T09:24:30.923Z,4.63
2023-09-30T09:27:09.660Z,8.10
2023-09-30T09:29:38.524Z,8.30
2023-09-30T09:32:10.470Z,3.53
2023-09-30T09:34:40.228Z,5.97
2023-09-30T09:37:18.934Z,6.05
2023-09-30T09:39:58.183Z,6.03
2023-09-30T09:42:27.688Z,4.68
2023-09-30T09:44:58.953Z,5.43
2023-09-30T09:47:28.308Z,4.28
2023-09-30T09:49:59.972Z,5.25
2023-09-30T09:52:29.342Z,8.82
2023-09-30T09:54:58.931Z,5.85
2023-09-30T09:57:28.081Z,5.20
2023-09-30T09:59:59.843Z,4.68
2023-09-30T10:02:30.166Z,4.95
2023-09-30T10:05:00.505Z,8.07
2023-09-30T10:07:32.011Z,7.95
2023-09-30T10:10:04.383Z,4.07
2023-09-30T10:12:39.285Z,4.78
2023-09-30T10:15:41.005Z,3.72
2023-09-30T10:18:14.488Z,4.13
2023-09-30T10:20:49.178Z,9.25
2023-09-30T10:23:28.573Z,5.72
2023-09-30T10:26:16.763Z,7.20
2023-09-30T10:28:47.517Z,5.75
2023-09-30T10:31:19.074Z,5.20
2023-09-30T10:34:20.632Z,7.68
2023-09-30T10:36:51.987Z,5.10
2023-09-30T10:39:59.415Z,6.40
2023-09-30T10:42:50.967Z,4.53
2023-09-30T10:45:48.378Z,6.10
2023-09-30T10:48:39.136Z,6.00
2023-09-30T10:51:17.319Z,5.07
2023-09-30T10:53:52.544Z,7.50
2023-09-30T10:56:21.248Z,6.20
2023-09-30T10:58:50.467Z,7.82
2023-09-30T11:01:20.175Z,10.63
2023-09-30T11:03:50.651Z,8.32
2023-09-30T11:06:22.429Z,4.70
2023-09-30T11:08:57.607Z,11.40
2023-09-30T11:11:40.996Z,8.73
2023-09-30T11:14:19.625Z,8.88
2023-09-30T11:16:48.346Z,9.80
2023-09-30T11:19:17.127Z,12.63
2023-09-30T11:21:46.175Z,6.18
2023-09-30T11:24:16.345Z,5.68
2023-09-30T11:26:44.387Z,8.15
2023-09-30T11:29:14.536Z,14.52
2023-09-30T11:31:44.205Z,11.70
2023-09-30T11:34:12.988Z,10.48
2023-09-30T11:36:43.421Z,7.25
2023-09-30T11:39:14.418Z,7.38
2023-09-30T11:41:45.413Z,9.18
2023-09-30T11:44:16.374Z,7.82
2023-09-30T11:46:53.308Z,8.18
2023-09-30T11:49:29.153Z,6.03
2023-09-30T11:51:57.683Z,8.20
2023-09-30T11:54:33.221Z,8.80
2023-09-30T11:57:04.180Z,9.98
2023-09-30T11:59:32.339Z,7.70
2023-09-30T12:02:13.661Z,9.35
2023-09-30T12:04:44.233Z,6.43
2023-09-30T12:07:12.453Z,7.70
2023-09-30T12:09:41.356Z,4.97
2023-09-30T12:12:12.008Z,5.72
2023-09-30T12:14:40.854Z,6.60
2023-09-30T12:17:12.084Z,13.82
2023-09-30T12:19:41.779Z,5.82
2023-09-30T12:22:11.252Z,6.72
2023-09-30T12:24:39.253Z,6.93
2023-09-30T12:27:07.850Z,5.57
2023-09-30T12:29:39.675Z,9.70
2023-09-30T12:32:08.564Z,8.32
2023-09-30T12:34:37.188Z,6.82
2023-09-30T12:37:05.597Z,8.20
2023-09-30T12:39:34.859Z,11.50
2023-09-30T12:42:03.059Z,5.47
2023-09-30T12:44:31.264Z,6.00
2023-09-30T12:47:00.633Z,7.93
2023-09-30T12:49:28.566Z,6.63
2023-09-30T12:51:57.197Z,7.17
2023-09-30T12:54:25.254Z,7.43
2023-09-30T12:56:53.292Z,11.80
2023-09-30T12:59:25.323Z,6.83
2023-09-30T13:01:53.496Z,8.30
2023-09-30T13:04:24.802Z,5.80
2023-09-30T13:06:52.745Z,8.20
2023-09-30T13:09:21.139Z,5.93
2023-09-30T13:11:49.381Z,5.60
2023-09-30T13:14:17.772Z,9.30
2023-09-30T13:16:46.635Z,10.43
2023-09-30T13:19:16.956Z,7.50
2023-09-30T13:21:46.195Z,7.67
2023-09-30T13:24:14.173Z,8.33
2023-09-30T13:26:42.412Z,8.10
2023-09-30T13:29:11.048Z,8.77
2023-09-30T13:31:39.260Z,7.83
2023-09-30T13:34:07.721Z,10.60
2023-09-30T13:36:35.588Z,8.70
2023-09-30T13:39:06.537Z,7.97
2023-09-30T13:41:36.555Z,8.07
2023-09-30T13:44:04.731Z,6.23
2023-09-30T13:46:32.575Z,7.67
2023-09-30T13:49:00.640Z,9.17
2023-09-30T13:51:28.821Z,7.40
2023-09-30T13:53:56.836Z,8.37
2023-09-30T13:56:26.039Z,10.97
2023-09-30T13:58:54.325Z,6.10
2023-09-30T14:01:22.294Z,9.90
2023-09-30T14:03:50.457Z,6.80
2023-09-30T14:06:18.377Z,6.17
2023-09-30T14:08:47.096Z,10.93
2023-09-30T14:11:14.951Z,6.80
2023-09-30T14:13:47.946Z,10.53
2023-09-30T14:16:15.893Z,11.57
2023-09-30T14:18:43.995Z,8.20
2023-09-30T14:21:11.899Z,7.80
2023-09-30T14:23:40.471Z,8.90
2023-09-30T14:26:12.104Z,8.23
2023-09-30T14:28:40.206Z,7.33
2023-09-30T14:31:09.509Z,11.80
2023-09-30T14:33:37.400Z,6.30
2023-09-30T14:36:06.737Z,6.90
2023-09-30T14:38:35.316Z,8.90
2023-09-30T14:41:03.128Z,9.13
2023-09-30T14:43:30.980Z,8.63
2023-09-30T14:45:58.909Z,6.90
2023-09-30T14:48:28.264Z,9.87
2023-09-30T14:50:56.296Z,8.13
2023-09-30T14:53:24.259Z,12.37
2023-09-30T14:55:52.111Z,7.53
2023-09-30T14:58:20.308Z,8.00
2023-09-30T15:00:48.308Z,12.33
2023-09-30T15:03:16.298Z,8.10
2023-09-30T15:05:45.506Z,6.60
2023-09-30T15:08:13.304Z,8.43
2023-09-30T15:10:41.200Z,10.27
2023-09-30T15:13:10.063Z,10.90
2023-09-30T15:15:38.782Z,9.23
2023-09-30T15:18:07.119Z,8.60
2023-09-30T15:20:41.067Z,9.60
2023-09-30T15:23:10.252Z,13.47
2023-09-30T15:25:42.586Z,9.90
2023-09-30T15:28:10.620Z,6.57
2023-09-30T15:30:38.463Z,9.37
2023-09-30T15:33:06.768Z,7.23
2023-09-30T15:35:34.860Z,9.67
2023-09-30T15:38:02.664Z,10.77
2023-09-30T15:40:33.295Z,9.13
2023-09-30T15:43:01.820Z,7.90
2023-09-30T15:45:29.766Z,8.80
2023-09-30T15:47:57.564Z,9.97
2023-09-30T15:50:25.383Z,13.70
2023-09-30T15:52:53.191Z,12.30
2023-09-30T15:55:21.240Z,10.37
2023-09-30T15:57:50.383Z,8.27
2023-09-30T16:00:18.699Z,7.70
2023-09-30T16:02:46.524Z,15.70
2023-09-30T16:05:14.441Z,14.43
2023-09-30T16:07:42.305Z,8.57
2023-09-30T16:10:11.404Z,9.73
2023-09-30T16:12:40.224Z,12.27
2023-09-30T16:15:12.167Z,11.40
2023-09-30T16:17:40.024Z,12.83
2023-09-30T16:20:09.803Z,9.43
2023-09-30T16:22:37.673Z,12.30
2023-09-30T16:25:06.762Z,13.37
2023-09-30T16:27:35.617Z,14.27
2023-09-30T16:30:03.637Z,12.27
2023-09-30T16:32:33.901Z,10.73
2023-09-30T16:35:03.908Z,12.43
2023-09-30T16:37:31.700Z,12.20
2023-09-30T16:39:59.611Z,11.37
2023-09-30T16:42:29.936Z,11.57
2023-09-30T16:44:57.718Z,9.60
2023-09-30T16:47:25.560Z,15.07
2023-09-30T16:49:54.828Z,10.80
2023-09-30T16:52:24.518Z,12.10
2023-09-30T16:54:52.588Z,17.23
2023-09-30T16:57:20.708Z,8.63
2023-09-30T16:59:49.549Z,8.60
2023-09-30T17:02:18.714Z,12.90
2023-09-30T17:04:47.201Z,13.70
2023-09-30T17:07:16.560Z,8.93
2023-09-30T17:09:44.442Z,11.33
2023-09-30T17:12:12.275Z,9.73
2023-09-30T17:14:40.222Z,11.67
2023-09-30T17:17:08.247Z,12.00
2023-09-30T17:19:36.068Z,17.57
2023-09-30T17:22:04.601Z,9.93
2023-09-30T17:24:34.196Z,10.60
2023-09-30T17:27:02.023Z,10.43
2023-09-30T17:29:29.899Z,11.07
2023-09-30T17:32:02.520Z,13.30
2023-09-30T17:34:30.488Z,10.23
2023-09-30T17:36:58.508Z,14.50
2023-09-30T17:39:26.495Z,17.40
2023-09-30T17:41:56.573Z,13.80
2023-09-30T17:44:24.763Z,16.20
2023-09-30T17:46:52.707Z,16.33
2023-09-30T17:49:20.782Z,14.90
2023-09-30T17:51:49.947Z,15.13
2023-09-30T17:54:18.234Z,15.97
2023-09-30T17:56:46.126Z,22.10
2023-09-30T17:59:15.318Z,15.17
2023-09-30T18:01:43.841Z,16.57
2023-09-30T18:04:11.964Z,18.17
2023-09-30T18:06:39.976Z,20.50
2023-09-30T18:09:09.035Z,14.97
2023-09-30T18:11:37.337Z,18.63
2023-09-30T18:14:06.074Z,15.33
2023-09-30T18:16:35.440Z,17.20
2023-09-30T18:19:03.407Z,19.50
2023-09-30T18:21:31.288Z,21.13
2023-09-30T18:24:00.657Z,25.83
2023-09-30T18:26:28.601Z,19.37
2023-09-30T18:28:56.462Z,24.37
2023-09-30T18:31:24.404Z,20.17
2023-09-30T18:33:53.803Z,20.90
2023-09-30T18:36:21.732Z,20.53
2023-09-30T18:38:49.633Z,22.80
2023-09-30T18:41:18.855Z,18.40
2023-09-30T18:43:47.893Z,19.00
2023-09-30T18:46:16.143Z,19.73
2023-09-30T18:48:44.939Z,21.97
2023-09-30T18:51:20.752Z,21.07
2023-09-30T18:53:48.732Z,15.60
2023-09-30T18:56:22.276Z,16.40
2023-09-30T18:58:50.273Z,19.63
2023-09-30T19:01:18.435Z,24.60
2023-09-30T19:03:46.789Z,22.33
2023-09-30T19:06:16.237Z,14.00
2023-09-30T19:08:44.140Z,17.23
2023-09-30T19:11:12.731Z,15.27
2023-09-30T19:13:41.328Z,16.20
2023-09-30T19:16:09.802Z,16.97
2023-09-30T19:18:38.241Z,19.80
2023-09-30T19:21:06.948Z,23.63
2023-09-30T19:23:37.232Z,17.57
2023-09-30T19:26:05.056Z,19.13
2023-09-30T19:28:33.110Z,18.20
2023-09-30T19:31:01.004Z,16.20
2023-09-30T19:33:32.317Z,21.40
2023-09-30T19:36:00.513Z,17.40
2023-09-30T19:38:28.489Z,19.10
2023-09-30T19:40:57.735Z,18.83
2023-09-30T19:43:25.671Z,16.07
2023-09-30T19:46:00.202Z,15.90
2023-09-30T19:48:28.303Z,19.17
2023-09-30T19:53:39.534Z,17.00
2023-09-30T19:56:10.155Z,19.57
2023-09-30T19:58:38.293Z,19.93
2023-09-30T20:01:12.941Z,15.30
2023-09-30T20:03:40.983Z,17.57
2023-09-30T20:06:20.385Z,21.13
2023-09-30T20:08:52.763Z,19.40
2023-09-30T20:11:28.581Z,17.50
2023-09-30T20:13:58.970Z,17.23
2023-09-30T20:16:27.539Z,16.70
2023-09-30T20:18:55.569Z,17.07
2023-09-30T20:21:23.536Z,18.87
2023-09-30T20:23:51.987Z,14.73
2023-09-30T20:26:24.690Z,16.27
2023-09-30T20:28:55.351Z,15.50
2023-09-30T20:31:23.428Z,18.07
2023-09-30T20:33:52.024Z,15.43
2023-09-30T20:36:20.469Z,24.93
2023-09-30T20:38:48.535Z,18.67
2023-09-30T20:41:16.580Z,16.93
2023-09-30T20:43:45.550Z,14.97
2023-09-30T20:46:17.822Z,16.13
2023-09-30T20:48:46.855Z,17.13
2023-09-30T20:51:14.827Z,12.23
2023-09-30T20:53:42.975Z,13.30
2023-09-30T20:56:14.827Z,14.97
2023-09-30T20:58:42.948Z,8.33
2023-09-30T21:01:13.781Z,14.03
2023-09-30T21:03:43.957Z,14.77
2023-09-30T21:06:12.446Z,12.07
2023-09-30T21:08:41.463Z,12.80
2023-09-30T21:11:10.286Z,19.13
2023-09-30T21:13:39.975Z,14.13
2023-09-30T21:16:07.957Z,13.90
2023-09-30T21:18:35.950Z,12.50
2023-09-30T21:21:05.546Z,19.33
2023-09-30T21:23:33.606Z,18.50
2023-09-30T21:26:01.715Z,12.67
2023-09-30T21:28:29.626Z,18.43
2023-09-30T21:30:57.533Z,16.37
2023-09-30T21:33:25.487Z,13.30
2023-09-30T21:35:57.730Z,20.40
2023-09-30T21:38:27.143Z,17.50
2023-09-30T21:40:55.045Z,14.87
2023-09-30T21:43:22.938Z,15.23
2023-09-30T21:45:50.971Z,15.63
2023-09-30T21:48:18.913Z,14.73
2023-09-30T21:50:46.820Z,14.80
2023-09-30T21:53:16.116Z,17.33
2023-09-30T21:55:45.484Z,21.87
2023-09-30T21:58:13.432Z,16.40
2023-09-30T22:00:42.952Z,12.80
2023-09-30T22:03:12.408Z,16.97
2023-09-30T22:05:42.056Z,19.30
2023-09-30T22:08:10.102Z,11.77
2023-09-30T22:10:38.257Z,12.70
2023-09-30T22:13:08.431Z,16.30
2023-09-30T22:15:37.695Z,14.83
2023-09-30T22:18:07.256Z,14.67
2023-09-30T22:20:35.452Z,15.50
2023-09-30T22:23:03.649Z,21.63
2023-09-30T22:25:32.231Z,16.43
2023-09-30T22:28:00.654Z,15.07
2023-09-30T22:30:31.946Z,15.03
2023-09-30T22:33:00.117Z,17.83
2023-09-30T22:35:28.653Z,14.43
2023-09-30T22:37:57.588Z,15.70
2023-09-30T22:40:25.657Z,17.37
2023-09-30T22:42:53.672Z,12.00
2023-09-30T22:45:21.659Z,18.23
2023-09-30T22:47:53.238Z,11.20
2023-09-30T22:50:23.290Z,12.90
2023-09-30T22:52:52.240Z,12.93
2023-09-30T22:55:23.181Z,13.47
2023-09-30T22:57:52.397Z,12.57
2023-09-30T23:00:21.523Z,12.93
2023-09-30T23:02:50.847Z,12.57
2023-09-30T23:05:19.268Z,11.13
2023-09-30T23:07:47.905Z,16.13
2023-09-30T23:10:18.632Z,12.20
2023-09-30T23:12:46.868Z,15.30
2023-09-30T23:15:17.632Z,11.97
2023-09-30T23:17:47.087Z,12.53
2023-09-30T23:20:21.373Z,15.00
2023-09-30T23:22:52.677Z,10.60
2023-09-30T23:25:27.521Z,14.03
2023-09-30T23:27:57.798Z,11.50
2023-09-30T23:30:27.177Z,13.10
2023-09-30T23:32:58.672Z,11.80
2023-09-30T23:35:30.617Z,16.03
2023-09-30T23:38:02.115Z,11.97
2023-09-30T23:40:31.705Z,12.17
2023-09-30T23:43:01.232Z,11.10
2023-09-30T23:45:31.947Z,12.70
2023-09-30T23:48:00.845Z,12.87
2023-09-30T23:50:30.961Z,14.27
2023-09-30T23:52:59.852Z,10.43
2023-09-30T23:55:28.950Z,11.53
2023-09-30T23:57:57.866Z,10.10
